sensor_id;sensor_type;location;lat;lon;timestamp;temperature;humidity
16116;DHT22;8162;47.104;15.432;2024-01-27T00:02:13;7.50;44.00
16116;DHT22;8162;47.104;15.432;2024-01-27T00:05:14;7.50;44.00
16116;DHT22;8162;47.104;15.432;2024-01-27T00:08:14;7.50;43.60
16116;DHT22;8162;47.104;15.432;2024-01-27T00:11:15;7.50;44.50
16116;DHT22;8162;47.104;15.432;2024-01-27T00:14:16;7.30;44.40
16116;DHT22;8162;47.104;15.432;2024-01-27T00:17:16;7.30;44.50
16116;DHT22;8162;47.104;15.432;2024-01-27T00:20:17;7.30;44.10
16116;DHT22;8162;47.104;15.432;2024-01-27T00:23:18;7.20;44.10
16116;DHT22;8162;47.104;15.432;2024-01-27T00:26:19;7.20;44.20
16116;DHT22;8162;47.104;15.432;2024-01-27T00:29:20;7.20;44.10
16116;DHT22;8162;47.104;15.432;2024-01-27T00:32:20;7.20;44.00
16116;DHT22;8162;47.104;15.432;2024-01-27T00:35:21;7.10;44.20
16116;DHT22;8162;47.104;15.432;2024-01-27T00:38:22;7.20;43.90
16116;DHT22;8162;47.104;15.432;2024-01-27T00:41:23;7.20;44.40
16116;DHT22;8162;47.104;15.432;2024-01-27T00:44:23;7.00;44.60
16116;DHT22;8162;47.104;15.432;2024-01-27T00:47:24;7.00;43.90
16116;DHT22;8162;47.104;15.432;2024-01-27T00:50:25;7.10;44.10
16116;DHT22;8162;47.104;15.432;2024-01-27T00:53:25;7.00;44.10
16116;DHT22;8162;47.104;15.432;2024-01-27T00:56:26;7.00;43.70
16116;DHT22;8162;47.104;15.432;2024-01-27T00:59:27;7.10;43.20
16116;DHT22;8162;47.104;15.432;2024-01-27T01:02:27;7.00;43.50
16116;DHT22;8162;47.104;15.432;2024-01-27T01:05:29;7.00;43.40
16116;DHT22;8162;47.104;15.432;2024-01-27T01:08:31;7.00;43.90
16116;DHT22;8162;47.104;15.432;2024-01-27T01:11:32;7.00;43.30
16116;DHT22;8162;47.104;15.432;2024-01-27T01:14:33;7.20;42.30
16116;DHT22;8162;47.104;15.432;2024-01-27T01:17:34;7.30;42.20
16116;DHT22;8162;47.104;15.432;2024-01-27T01:20:34;7.20;42.80
16116;DHT22;8162;47.104;15.432;2024-01-27T01:23:35;7.40;41.80
16116;DHT22;8162;47.104;15.432;2024-01-27T01:26:36;7.40;42.20
16116;DHT22;8162;47.104;15.432;2024-01-27T01:29:36;7.20;42.20
16116;DHT22;8162;47.104;15.432;2024-01-27T01:32:37;7.20;42.50
16116;DHT22;8162;47.104;15.432;2024-01-27T01:35:38;7.20;41.90
16116;DHT22;8162;47.104;15.432;2024-01-27T01:38:38;7.10;42.30
16116;DHT22;8162;47.104;15.432;2024-01-27T01:41:39;7.00;41.90
16116;DHT22;8162;47.104;15.432;2024-01-27T01:44:40;7.00;40.80
16116;DHT22;8162;47.104;15.432;2024-01-27T01:47:41;7.20;41.20
16116;DHT22;8162;47.104;15.432;2024-01-27T01:50:42;7.20;40.80
16116;DHT22;8162;47.104;15.432;2024-01-27T01:53:45;7.20;40.00
16116;DHT22;8162;47.104;15.432;2024-01-27T01:56:48;7.30;40.30
16116;DHT22;8162;47.104;15.432;2024-01-27T01:59:49;7.30;39.70
16116;DHT22;8162;47.104;15.432;2024-01-27T02:02:50;7.20;40.40
16116;DHT22;8162;47.104;15.432;2024-01-27T02:05:50;7.20;40.00
16116;DHT22;8162;47.104;15.432;2024-01-27T02:08:52;7.20;40.10
16116;DHT22;8162;47.104;15.432;2024-01-27T02:11:52;7.20;39.80
16116;DHT22;8162;47.104;15.432;2024-01-27T02:14:53;7.20;40.30
16116;DHT22;8162;47.104;15.432;2024-01-27T02:17:54;7.00;40.80
16116;DHT22;8162;47.104;15.432;2024-01-27T02:20:54;7.00;39.90
16116;DHT22;8162;47.104;15.432;2024-01-27T02:23:55;7.10;39.70
16116;DHT22;8162;47.104;15.432;2024-01-27T02:26:56;7.00;40.30
16116;DHT22;8162;47.104;15.432;2024-01-27T02:29:57;7.00;40.00
16116;DHT22;8162;47.104;15.432;2024-01-27T02:32:58;6.90;40.40
16116;DHT22;8162;47.104;15.432;2024-01-27T02:35:58;7.00;40.00
16116;DHT22;8162;47.104;15.432;2024-01-27T02:38:59;6.90;40.20
16116;DHT22;8162;47.104;15.432;2024-01-27T02:42:00;6.90;40.00
16116;DHT22;8162;47.104;15.432;2024-01-27T02:45:01;7.00;39.80
16116;DHT22;8162;47.104;15.432;2024-01-27T02:48:02;7.00;40.10
16116;DHT22;8162;47.104;15.432;2024-01-27T02:51:03;6.90;39.80
16116;DHT22;8162;47.104;15.432;2024-01-27T02:54:04;6.90;40.10
16116;DHT22;8162;47.104;15.432;2024-01-27T02:57:05;6.80;40.50
16116;DHT22;8162;47.104;15.432;2024-01-27T03:00:06;6.70;40.70
16116;DHT22;8162;47.104;15.432;2024-01-27T03:03:07;6.70;40.70
16116;DHT22;8162;47.104;15.432;2024-01-27T03:06:07;6.70;40.50
16116;DHT22;8162;47.104;15.432;2024-01-27T03:09:08;6.60;41.20
16116;DHT22;8162;47.104;15.432;2024-01-27T03:12:11;6.50;41.10
16116;DHT22;8162;47.104;15.432;2024-01-27T03:15:11;6.50;41.10
16116;DHT22;8162;47.104;15.432;2024-01-27T03:18:12;6.60;40.70
16116;DHT22;8162;47.104;15.432;2024-01-27T03:21:13;6.60;41.00
16116;DHT22;8162;47.104;15.432;2024-01-27T03:24:14;6.60;41.40
16116;DHT22;8162;47.104;15.432;2024-01-27T03:27:14;6.50;41.70
16116;DHT22;8162;47.104;15.432;2024-01-27T03:30:15;6.50;41.30
16116;DHT22;8162;47.104;15.432;2024-01-27T03:33:16;6.50;41.60
16116;DHT22;8162;47.104;15.432;2024-01-27T03:36:16;6.50;41.60
16116;DHT22;8162;47.104;15.432;2024-01-27T03:39:18;6.40;42.10
16116;DHT22;8162;47.104;15.432;2024-01-27T03:42:18;6.40;42.00
16116;DHT22;8162;47.104;15.432;2024-01-27T03:45:19;6.50;41.40
16116;DHT22;8162;47.104;15.432;2024-01-27T03:48:20;6.50;41.90
16116;DHT22;8162;47.104;15.432;2024-01-27T03:51:20;6.40;42.10
16116;DHT22;8162;47.104;15.432;2024-01-27T03:54:21;6.40;42.70
16116;DHT22;8162;47.104;15.432;2024-01-27T03:57:22;6.30;43.00
16116;DHT22;8162;47.104;15.432;2024-01-27T04:00:23;6.30;43.10
16116;DHT22;8162;47.104;15.432;2024-01-27T04:03:23;6.20;43.20
16116;DHT22;8162;47.104;15.432;2024-01-27T04:06:24;6.10;43.70
16116;DHT22;8162;47.104;15.432;2024-01-27T04:09:25;6.10;43.70
16116;DHT22;8162;47.104;15.432;2024-01-27T04:12:25;6.10;43.90
16116;DHT22;8162;47.104;15.432;2024-01-27T04:15:26;6.10;43.40
16116;DHT22;8162;47.104;15.432;2024-01-27T04:18:27;6.00;44.00
16116;DHT22;8162;47.104;15.432;2024-01-27T04:21:27;6.00;44.40
16116;DHT22;8162;47.104;15.432;2024-01-27T04:24:28;5.90;45.10
16116;DHT22;8162;47.104;15.432;2024-01-27T04:27:29;5.80;45.40
16116;DHT22;8162;47.104;15.432;2024-01-27T04:30:30;5.80;46.10
16116;DHT22;8162;47.104;15.432;2024-01-27T04:33:30;5.70;46.70
16116;DHT22;8162;47.104;15.432;2024-01-27T04:36:31;5.70;46.90
16116;DHT22;8162;47.104;15.432;2024-01-27T04:39:32;5.50;47.00
16116;DHT22;8162;47.104;15.432;2024-01-27T04:42:38;5.50;47.20
16116;DHT22;8162;47.104;15.432;2024-01-27T04:45:39;5.40;47.00
16116;DHT22;8162;47.104;15.432;2024-01-27T04:48:39;5.30;47.40
16116;DHT22;8162;47.104;15.432;2024-01-27T04:51:40;5.50;46.10
16116;DHT22;8162;47.104;15.432;2024-01-27T04:54:41;5.50;48.30
16116;DHT22;8162;47.104;15.432;2024-01-27T04:57:58;5.40;48.30
16116;DHT22;8162;47.104;15.432;2024-01-27T05:00:59;5.30;48.30
16116;DHT22;8162;47.104;15.432;2024-01-27T05:04:00;5.30;47.80
16116;DHT22;8162;47.104;15.432;2024-01-27T05:07:00;5.10;48.30
16116;DHT22;8162;47.104;15.432;2024-01-27T05:10:01;5.10;48.90
16116;DHT22;8162;47.104;15.432;2024-01-27T05:13:02;5.00;48.90
16116;DHT22;8162;47.104;15.432;2024-01-27T05:16:03;5.00;49.60
16116;DHT22;8162;47.104;15.432;2024-01-27T05:19:04;5.00;48.40
16116;DHT22;8162;47.104;15.432;2024-01-27T05:22:05;5.10;48.40
16116;DHT22;8162;47.104;15.432;2024-01-27T05:25:06;5.10;49.40
16116;DHT22;8162;47.104;15.432;2024-01-27T05:28:06;5.00;49.20
16116;DHT22;8162;47.104;15.432;2024-01-27T05:31:08;5.00;49.30
16116;DHT22;8162;47.104;15.432;2024-01-27T05:34:13;5.00;50.20
16116;DHT22;8162;47.104;15.432;2024-01-27T05:37:13;5.00;50.20
16116;DHT22;8162;47.104;15.432;2024-01-27T05:40:14;4.90;50.70
16116;DHT22;8162;47.104;15.432;2024-01-27T05:43:15;4.80;50.50
16116;DHT22;8162;47.104;15.432;2024-01-27T05:46:16;4.90;49.20
16116;DHT22;8162;47.104;15.432;2024-01-27T05:49:16;5.00;48.80
16116;DHT22;8162;47.104;15.432;2024-01-27T05:52:17;5.00;49.50
16116;DHT22;8162;47.104;15.432;2024-01-27T05:55:18;5.00;49.70
16116;DHT22;8162;47.104;15.432;2024-01-27T05:58:19;5.10;50.10
16116;DHT22;8162;47.104;15.432;2024-01-27T06:01:21;5.10;50.00
16116;DHT22;8162;47.104;15.432;2024-01-27T06:04:22;5.00;49.80
16116;DHT22;8162;47.104;15.432;2024-01-27T06:07:23;5.10;49.70
16116;DHT22;8162;47.104;15.432;2024-01-27T06:10:23;5.10;47.80
16116;DHT22;8162;47.104;15.432;2024-01-27T06:13:25;5.10;47.80
16116;DHT22;8162;47.104;15.432;2024-01-27T06:16:25;5.10;48.70
16116;DHT22;8162;47.104;15.432;2024-01-27T06:19:26;5.10;48.10
16116;DHT22;8162;47.104;15.432;2024-01-27T06:22:27;5.10;48.10
16116;DHT22;8162;47.104;15.432;2024-01-27T06:25:28;5.10;48.20
16116;DHT22;8162;47.104;15.432;2024-01-27T06:28:29;5.10;47.90
16116;DHT22;8162;47.104;15.432;2024-01-27T06:31:29;5.10;47.20
16116;DHT22;8162;47.104;15.432;2024-01-27T06:34:32;5.10;48.40
16116;DHT22;8162;47.104;15.432;2024-01-27T06:37:33;5.10;48.70
16116;DHT22;8162;47.104;15.432;2024-01-27T06:40:34;5.10;48.80
16116;DHT22;8162;47.104;15.432;2024-01-27T06:43:34;5.00;48.40
16116;DHT22;8162;47.104;15.432;2024-01-27T06:46:35;5.00;47.60
16116;DHT22;8162;47.104;15.432;2024-01-27T06:49:36;5.10;47.80
16116;DHT22;8162;47.104;15.432;2024-01-27T06:52:37;5.10;47.20
16116;DHT22;8162;47.104;15.432;2024-01-27T06:55:38;5.10;47.20
16116;DHT22;8162;47.104;15.432;2024-01-27T06:58:39;5.10;47.90
16116;DHT22;8162;47.104;15.432;2024-01-27T07:01:48;5.20;47.80
16116;DHT22;8162;47.104;15.432;2024-01-27T07:04:49;5.20;48.50
16116;DHT22;8162;47.104;15.432;2024-01-27T07:07:49;5.10;48.00
16116;DHT22;8162;47.104;15.432;2024-01-27T07:10:50;5.10;48.00
16116;DHT22;8162;47.104;15.432;2024-01-27T07:13:51;5.10;48.20
16116;DHT22;8162;47.104;15.432;2024-01-27T07:16:51;5.10;48.30
16116;DHT22;8162;47.104;15.432;2024-01-27T07:19:52;5.10;48.10
16116;DHT22;8162;47.104;15.432;2024-01-27T07:22:53;5.10;47.90
16116;DHT22;8162;47.104;15.432;2024-01-27T07:25:53;5.00;49.80
16116;DHT22;8162;47.104;15.432;2024-01-27T07:28:54;5.00;50.30
16116;DHT22;8162;47.104;15.432;2024-01-27T07:31:55;5.00;50.00
16116;DHT22;8162;47.104;15.432;2024-01-27T07:34:55;5.00;51.10
16116;DHT22;8162;47.104;15.432;2024-01-27T07:37:56;4.90;51.80
16116;DHT22;8162;47.104;15.432;2024-01-27T07:40:57;4.80;51.50
16116;DHT22;8162;47.104;15.432;2024-01-27T07:44:07;4.70;52.00
16116;DHT22;8162;47.104;15.432;2024-01-27T07:47:08;4.70;52.20
16116;DHT22;8162;47.104;15.432;2024-01-27T07:50:12;4.70;52.30
16116;DHT22;8162;47.104;15.432;2024-01-27T07:53:12;4.70;52.30
16116;DHT22;8162;47.104;15.432;2024-01-27T07:56:13;4.70;52.60
16116;DHT22;8162;47.104;15.432;2024-01-27T07:59:14;4.70;53.00
16116;DHT22;8162;47.104;15.432;2024-01-27T08:02:14;4.70;53.80
16116;DHT22;8162;47.104;15.432;2024-01-27T08:05:15;4.70;53.90
16116;DHT22;8162;47.104;15.432;2024-01-27T08:08:16;4.70;54.30
16116;DHT22;8162;47.104;15.432;2024-01-27T08:11:17;4.70;54.10
16116;DHT22;8162;47.104;15.432;2024-01-27T08:14:18;4.70;54.20
16116;DHT22;8162;47.104;15.432;2024-01-27T08:17:20;4.80;54.10
16116;DHT22;8162;47.104;15.432;2024-01-27T08:20:22;4.90;54.40
16116;DHT22;8162;47.104;15.432;2024-01-27T08:23:24;4.90;53.80
16116;DHT22;8162;47.104;15.432;2024-01-27T08:26:25;5.00;53.40
16116;DHT22;8162;47.104;15.432;2024-01-27T08:29:26;5.00;51.50
16116;DHT22;8162;47.104;15.432;2024-01-27T08:32:27;5.00;51.30
16116;DHT22;8162;47.104;15.432;2024-01-27T08:35:27;5.10;51.00
16116;DHT22;8162;47.104;15.432;2024-01-27T08:38:28;5.10;49.60
16116;DHT22;8162;47.104;15.432;2024-01-27T08:41:29;5.30;50.00
16116;DHT22;8162;47.104;15.432;2024-01-27T08:44:29;5.30;49.30
16116;DHT22;8162;47.104;15.432;2024-01-27T08:47:30;5.40;49.10
16116;DHT22;8162;47.104;15.432;2024-01-27T08:50:31;5.50;48.80
16116;DHT22;8162;47.104;15.432;2024-01-27T08:53:32;5.50;48.30
16116;DHT22;8162;47.104;15.432;2024-01-27T08:56:33;5.50;48.70
16116;DHT22;8162;47.104;15.432;2024-01-27T08:59:33;5.60;47.10
16116;DHT22;8162;47.104;15.432;2024-01-27T09:02:36;5.60;47.30
16116;DHT22;8162;47.104;15.432;2024-01-27T09:05:37;5.70;47.90
16116;DHT22;8162;47.104;15.432;2024-01-27T09:08:37;5.70;47.60
16116;DHT22;8162;47.104;15.432;2024-01-27T09:11:38;5.70;47.80
16116;DHT22;8162;47.104;15.432;2024-01-27T09:14:39;5.80;46.90
16116;DHT22;8162;47.104;15.432;2024-01-27T09:17:40;5.90;47.30
16116;DHT22;8162;47.104;15.432;2024-01-27T09:20:43;6.00;45.10
16116;DHT22;8162;47.104;15.432;2024-01-27T09:23:44;6.00;44.90
16116;DHT22;8162;47.104;15.432;2024-01-27T09:26:44;6.10;45.90
16116;DHT22;8162;47.104;15.432;2024-01-27T09:29:45;6.10;46.20
16116;DHT22;8162;47.104;15.432;2024-01-27T09:32:46;6.20;46.50
16116;DHT22;8162;47.104;15.432;2024-01-27T09:35:46;6.40;45.50
16116;DHT22;8162;47.104;15.432;2024-01-27T09:38:47;6.40;46.60
16116;DHT22;8162;47.104;15.432;2024-01-27T09:41:48;6.40;46.90
16116;DHT22;8162;47.104;15.432;2024-01-27T09:44:51;6.40;47.10
16116;DHT22;8162;47.104;15.432;2024-01-27T09:47:54;6.50;46.50
16116;DHT22;8162;47.104;15.432;2024-01-27T09:50:58;6.50;46.40
16116;DHT22;8162;47.104;15.432;2024-01-27T09:54:00;6.50;45.70
16116;DHT22;8162;47.104;15.432;2024-01-27T09:57:01;6.50;44.30
16116;DHT22;8162;47.104;15.432;2024-01-27T10:00:02;6.60;44.40
16116;DHT22;8162;47.104;15.432;2024-01-27T10:03:05;6.60;44.30
16116;DHT22;8162;47.104;15.432;2024-01-27T10:06:08;6.70;43.70
16116;DHT22;8162;47.104;15.432;2024-01-27T10:09:10;6.70;43.50
16116;DHT22;8162;47.104;15.432;2024-01-27T10:12:12;6.80;41.90
16116;DHT22;8162;47.104;15.432;2024-01-27T10:15:20;6.80;42.20
16116;DHT22;8162;47.104;15.432;2024-01-27T10:18:21;6.90;41.10
16116;DHT22;8162;47.104;15.432;2024-01-27T10:21:22;7.00;40.10
16116;DHT22;8162;47.104;15.432;2024-01-27T10:24:25;7.20;39.00
16116;DHT22;8162;47.104;15.432;2024-01-27T10:27:25;7.20;38.20
16116;DHT22;8162;47.104;15.432;2024-01-27T10:30:26;7.40;37.50
16116;DHT22;8162;47.104;15.432;2024-01-27T10:33:27;7.50;35.80
16116;DHT22;8162;47.104;15.432;2024-01-27T10:36:42;7.60;36.40
16116;DHT22;8162;47.104;15.432;2024-01-27T10:39:43;7.60;36.00
16116;DHT22;8162;47.104;15.432;2024-01-27T10:42:44;7.60;35.90
16116;DHT22;8162;47.104;15.432;2024-01-27T10:45:45;7.80;35.10
16116;DHT22;8162;47.104;15.432;2024-01-27T10:48:52;7.80;34.80
16116;DHT22;8162;47.104;15.432;2024-01-27T10:51:55;7.80;35.40
16116;DHT22;8162;47.104;15.432;2024-01-27T10:55:01;7.80;34.40
16116;DHT22;8162;47.104;15.432;2024-01-27T10:58:03;8.00;34.50
16116;DHT22;8162;47.104;15.432;2024-01-27T11:01:04;8.10;33.90
16116;DHT22;8162;47.104;15.432;2024-01-27T11:04:05;8.10;33.00
16116;DHT22;8162;47.104;15.432;2024-01-27T11:07:09;8.10;34.00
16116;DHT22;8162;47.104;15.432;2024-01-27T11:10:10;8.30;33.20
16116;DHT22;8162;47.104;15.432;2024-01-27T11:13:11;8.40;33.20
16116;DHT22;8162;47.104;15.432;2024-01-27T11:16:18;8.40;33.00
16116;DHT22;8162;47.104;15.432;2024-01-27T11:19:19;8.50;33.20
16116;DHT22;8162;47.104;15.432;2024-01-27T11:22:25;8.50;32.60
16116;DHT22;8162;47.104;15.432;2024-01-27T11:25:29;8.50;32.50
16116;DHT22;8162;47.104;15.432;2024-01-27T11:28:30;8.60;32.80
16116;DHT22;8162;47.104;15.432;2024-01-27T11:31:31;8.60;31.80
16116;DHT22;8162;47.104;15.432;2024-01-27T11:34:45;8.80;31.50
16116;DHT22;8162;47.104;15.432;2024-01-27T11:37:46;8.90;32.00
16116;DHT22;8162;47.104;15.432;2024-01-27T11:40:48;9.00;31.40
16116;DHT22;8162;47.104;15.432;2024-01-27T11:43:57;9.00;31.70
16116;DHT22;8162;47.104;15.432;2024-01-27T11:46:58;9.00;31.80
16116;DHT22;8162;47.104;15.432;2024-01-27T11:50:00;9.20;31.50
16116;DHT22;8162;47.104;15.432;2024-01-27T11:53:01;9.20;30.90
16116;DHT22;8162;47.104;15.432;2024-01-27T11:56:02;9.40;30.80
16116;DHT22;8162;47.104;15.432;2024-01-27T11:59:04;9.60;29.80
16116;DHT22;8162;47.104;15.432;2024-01-27T12:02:05;9.60;30.50
16116;DHT22;8162;47.104;15.432;2024-01-27T12:05:11;9.70;30.10
16116;DHT22;8162;47.104;15.432;2024-01-27T12:08:12;9.80;30.20
16116;DHT22;8162;47.104;15.432;2024-01-27T12:11:13;9.90;30.10
16116;DHT22;8162;47.104;15.432;2024-01-27T12:14:16;10.00;29.30
16116;DHT22;8162;47.104;15.432;2024-01-27T12:17:18;10.20;30.20
16116;DHT22;8162;47.104;15.432;2024-01-27T12:20:19;10.10;29.30
16116;DHT22;8162;47.104;15.432;2024-01-27T13:41:58;10.20;29.00
16116;DHT22;8162;47.104;15.432;2024-01-27T13:45:00;11.90;26.80
16116;DHT22;8162;47.104;15.432;2024-01-27T13:54:03;11.70;27.00
16116;DHT22;8162;47.104;15.432;2024-01-27T13:57:04;12.20;26.50
16116;DHT22;8162;47.104;15.432;2024-01-27T14:00:05;12.20;26.40
16116;DHT22;8162;47.104;15.432;2024-01-27T14:03:06;12.20;26.00
16116;DHT22;8162;47.104;15.432;2024-01-27T14:06:07;12.30;26.40
16116;DHT22;8162;47.104;15.432;2024-01-27T14:09:12;12.30;26.50
16116;DHT22;8162;47.104;15.432;2024-01-27T14:12:14;12.30;26.00
16116;DHT22;8162;47.104;15.432;2024-01-27T14:15:15;12.30;26.10
16116;DHT22;8162;47.104;15.432;2024-01-27T14:18:18;12.20;26.00
16116;DHT22;8162;47.104;15.432;2024-01-27T14:21:21;12.30;26.30
16116;DHT22;8162;47.104;15.432;2024-01-27T14:24:22;12.00;26.10
16116;DHT22;8162;47.104;15.432;2024-01-27T14:27:23;12.10;26.30
16116;DHT22;8162;47.104;15.432;2024-01-27T14:30:26;12.00;26.40
16116;DHT22;8162;47.104;15.432;2024-01-27T14:33:27;12.10;26.40
16116;DHT22;8162;47.104;15.432;2024-01-27T14:36:28;12.00;26.10
16116;DHT22;8162;47.104;15.432;2024-01-27T14:39:28;11.90;26.40
16116;DHT22;8162;47.104;15.432;2024-01-27T14:42:31;11.70;26.20
16116;DHT22;8162;47.104;15.432;2024-01-27T14:45:32;11.90;26.80
16116;DHT22;8162;47.104;15.432;2024-01-27T14:48:32;11.70;26.90
16116;DHT22;8162;47.104;15.432;2024-01-27T14:51:34;11.70;27.10
16116;DHT22;8162;47.104;15.432;2024-01-27T14:54:35;11.50;26.90
16116;DHT22;8162;47.104;15.432;2024-01-27T14:57:37;11.30;27.20
16116;DHT22;8162;47.104;15.432;2024-01-27T15:00:37;24.00;50.00
16116;DHT22;8162;47.104;15.432;2024-01-27T15:03:38;11.20;27.90
16116;DHT22;8162;47.104;15.432;2024-01-27T15:06:41;24.00;50.00
16116;DHT22;8162;47.104;15.432;2024-01-27T15:09:42;11.10;27.60
16116;DHT22;8162;47.104;15.432;2024-01-27T15:12:43;11.00;27.40
16116;DHT22;8162;47.104;15.432;2024-01-27T15:15:43;10.90;27.30
16116;DHT22;8162;47.104;15.432;2024-01-27T15:18:44;10.80;27.30
16116;DHT22;8162;47.104;15.432;2024-01-27T15:21:45;10.70;28.00
16116;DHT22;8162;47.104;15.432;2024-01-27T15:24:46;10.60;27.80
16116;DHT22;8162;47.104;15.432;2024-01-27T15:27:48;10.50;28.00
16116;DHT22;8162;47.104;15.432;2024-01-27T15:30:49;10.10;28.10
16116;DHT22;8162;47.104;15.432;2024-01-27T15:33:50;9.90;28.50
16116;DHT22;8162;47.104;15.432;2024-01-27T15:42:53;9.70;28.90
16116;DHT22;8162;47.104;15.432;2024-01-27T15:45:56;9.40;30.50
16116;DHT22;8162;47.104;15.432;2024-01-27T15:48:56;9.20;30.80
16116;DHT22;8162;47.104;15.432;2024-01-27T16:10:04;9.00;30.80
16116;DHT22;8162;47.104;15.432;2024-01-27T16:13:05;8.10;33.80
16116;DHT22;8162;47.104;15.432;2024-01-27T16:16:06;8.00;33.10
16116;DHT22;8162;47.104;15.432;2024-01-27T16:19:07;8.00;33.20
16116;DHT22;8162;47.104;15.432;2024-01-27T16:22:08;7.90;33.50
16116;DHT22;8162;47.104;15.432;2024-01-27T16:25:08;7.80;34.00
16116;DHT22;8162;47.104;15.432;2024-01-27T16:28:09;7.80;34.70
16116;DHT22;8162;47.104;15.432;2024-01-27T16:31:10;7.60;35.30
16116;DHT22;8162;47.104;15.432;2024-01-27T17:40:36;7.50;34.80
16116;DHT22;8162;47.104;15.432;2024-01-27T17:43:37;5.80;38.20
16116;DHT22;8162;47.104;15.432;2024-01-27T17:46:38;5.80;38.20
16116;DHT22;8162;47.104;15.432;2024-01-27T17:49:39;5.70;39.10
16116;DHT22;8162;47.104;15.432;2024-01-27T17:52:40;5.70;38.90
16116;DHT22;8162;47.104;15.432;2024-01-27T17:55:42;5.70;38.90
16116;DHT22;8162;47.104;15.432;2024-01-27T17:58:43;5.70;39.40
16116;DHT22;8162;47.104;15.432;2024-01-27T18:01:44;5.60;39.30
16116;DHT22;8162;47.104;15.432;2024-01-27T18:04:45;5.60;39.20
16116;DHT22;8162;47.104;15.432;2024-01-27T18:07:45;5.50;39.20
16116;DHT22;8162;47.104;15.432;2024-01-27T18:10:46;5.50;39.20
16116;DHT22;8162;47.104;15.432;2024-01-27T18:13:47;5.50;39.30
16116;DHT22;8162;47.104;15.432;2024-01-27T18:16:49;5.50;39.20
16116;DHT22;8162;47.104;15.432;2024-01-27T18:19:50;5.40;39.50
16116;DHT22;8162;47.104;15.432;2024-01-27T18:22:50;5.40;39.40
16116;DHT22;8162;47.104;15.432;2024-01-27T18:25:51;5.40;40.30
16116;DHT22;8162;47.104;15.432;2024-01-27T18:28:52;5.40;40.80
16116;DHT22;8162;47.104;15.432;2024-01-27T18:31:53;5.30;40.60
16116;DHT22;8162;47.104;15.432;2024-01-27T18:34:53;5.30;41.10
16116;DHT22;8162;47.104;15.432;2024-01-27T18:37:54;5.30;41.00
16116;DHT22;8162;47.104;15.432;2024-01-27T18:40:55;5.20;41.80
16116;DHT22;8162;47.104;15.432;2024-01-27T18:43:55;5.00;41.50
16116;DHT22;8162;47.104;15.432;2024-01-27T18:46:56;5.10;41.40
16116;DHT22;8162;47.104;15.432;2024-01-27T18:56:00;5.00;41.60
16116;DHT22;8162;47.104;15.432;2024-01-27T18:59:04;4.80;43.10
16116;DHT22;8162;47.104;15.432;2024-01-27T19:02:05;4.70;42.90
16116;DHT22;8162;47.104;15.432;2024-01-27T19:05:06;4.70;42.70
16116;DHT22;8162;47.104;15.432;2024-01-27T19:11:10;4.70;42.30
16116;DHT22;8162;47.104;15.432;2024-01-27T19:14:11;4.50;43.70
16116;DHT22;8162;47.104;15.432;2024-01-27T19:20:13;4.50;43.60
16116;DHT22;8162;47.104;15.432;2024-01-27T19:23:14;4.40;44.00
16116;DHT22;8162;47.104;15.432;2024-01-27T19:26:15;4.30;43.20
16116;DHT22;8162;47.104;15.432;2024-01-27T19:29:16;4.20;44.40
16116;DHT22;8162;47.104;15.432;2024-01-27T19:32:16;4.10;44.30
16116;DHT22;8162;47.104;15.432;2024-01-27T19:35:17;4.00;45.00
16116;DHT22;8162;47.104;15.432;2024-01-27T19:38:20;3.90;45.30
16116;DHT22;8162;47.104;15.432;2024-01-27T19:41:21;3.60;45.70
16116;DHT22;8162;47.104;15.432;2024-01-27T19:44:22;3.50;46.20
16116;DHT22;8162;47.104;15.432;2024-01-27T19:47:22;3.50;46.90
16116;DHT22;8162;47.104;15.432;2024-01-27T19:50:23;3.30;47.30
16116;DHT22;8162;47.104;15.432;2024-01-27T19:53:25;3.30;46.90
16116;DHT22;8162;47.104;15.432;2024-01-27T19:56:26;3.30;47.20
16116;DHT22;8162;47.104;15.432;2024-01-27T19:59:27;3.30;47.60
16116;DHT22;8162;47.104;15.432;2024-01-27T20:02:28;3.30;47.60
16116;DHT22;8162;47.104;15.432;2024-01-27T20:05:29;3.30;47.30
16116;DHT22;8162;47.104;15.432;2024-01-27T20:08:29;3.30;47.20
16116;DHT22;8162;47.104;15.432;2024-01-27T20:11:30;3.10;47.40
16116;DHT22;8162;47.104;15.432;2024-01-27T20:14:31;3.10;47.70
16116;DHT22;8162;47.104;15.432;2024-01-27T20:17:32;3.10;48.00
16116;DHT22;8162;47.104;15.432;2024-01-27T20:20:33;3.00;48.30
16116;DHT22;8162;47.104;15.432;2024-01-27T20:23:36;3.00;48.50
16116;DHT22;8162;47.104;15.432;2024-01-27T20:26:41;3.00;48.50
16116;DHT22;8162;47.104;15.432;2024-01-27T20:29:42;3.00;47.50
16116;DHT22;8162;47.104;15.432;2024-01-27T20:32:43;3.00;47.80
16116;DHT22;8162;47.104;15.432;2024-01-27T20:35:44;2.90;47.70
16116;DHT22;8162;47.104;15.432;2024-01-27T20:38:45;3.00;47.90
16116;DHT22;8162;47.104;15.432;2024-01-27T20:41:46;3.00;48.10
16116;DHT22;8162;47.104;15.432;2024-01-27T20:44:46;2.90;48.20
16116;DHT22;8162;47.104;15.432;2024-01-27T20:47:48;2.90;48.70
16116;DHT22;8162;47.104;15.432;2024-01-27T20:50:49;2.80;48.50
16116;DHT22;8162;47.104;15.432;2024-01-27T20:53:51;2.70;48.40
16116;DHT22;8162;47.104;15.432;2024-01-27T20:56:52;2.70;48.60
16116;DHT22;8162;47.104;15.432;2024-01-27T20:59:54;2.70;48.40
16116;DHT22;8162;47.104;15.432;2024-01-27T21:02:55;2.60;48.90
16116;DHT22;8162;47.104;15.432;2024-01-27T21:05:56;2.60;48.30
16116;DHT22;8162;47.104;15.432;2024-01-27T21:08:56;2.50;48.40
16116;DHT22;8162;47.104;15.432;2024-01-27T21:11:57;2.50;49.50
16116;DHT22;8162;47.104;15.432;2024-01-27T21:14:58;2.50;49.50
16116;DHT22;8162;47.104;15.432;2024-01-27T21:17:58;2.50;49.20
16116;DHT22;8162;47.104;15.432;2024-01-27T21:20:59;2.40;48.80
16116;DHT22;8162;47.104;15.432;2024-01-27T21:24:00;2.40;48.90
16116;DHT22;8162;47.104;15.432;2024-01-27T21:27:01;2.20;48.90
16116;DHT22;8162;47.104;15.432;2024-01-27T21:30:02;2.30;49.90
16116;DHT22;8162;47.104;15.432;2024-01-27T21:33:03;2.20;49.40
16116;DHT22;8162;47.104;15.432;2024-01-27T21:36:04;2.20;50.00
16116;DHT22;8162;47.104;15.432;2024-01-27T21:39:05;2.20;49.70
16116;DHT22;8162;47.104;15.432;2024-01-27T21:42:05;2.20;49.40
16116;DHT22;8162;47.104;15.432;2024-01-27T21:45:06;2.20;49.70
16116;DHT22;8162;47.104;15.432;2024-01-27T21:48:08;2.10;49.30
16116;DHT22;8162;47.104;15.432;2024-01-27T21:51:10;2.10;49.70
16116;DHT22;8162;47.104;15.432;2024-01-27T21:54:11;2.10;50.40
16116;DHT22;8162;47.104;15.432;2024-01-27T21:57:12;2.10;50.00
16116;DHT22;8162;47.104;15.432;2024-01-27T22:00:13;2.10;49.90
16116;DHT22;8162;47.104;15.432;2024-01-27T22:03:14;2.10;50.50
16116;DHT22;8162;47.104;15.432;2024-01-27T22:06:15;2.10;50.10
16116;DHT22;8162;47.104;15.432;2024-01-27T22:09:17;2.20;50.00
16116;DHT22;8162;47.104;15.432;2024-01-27T22:12:18;2.20;49.40
16116;DHT22;8162;47.104;15.432;2024-01-27T22:15:20;2.20;49.70
16116;DHT22;8162;47.104;15.432;2024-01-27T22:18:20;2.20;49.80
16116;DHT22;8162;47.104;15.432;2024-01-27T22:21:22;2.30;49.30
16116;DHT22;8162;47.104;15.432;2024-01-27T22:24:24;2.30;49.40
16116;DHT22;8162;47.104;15.432;2024-01-27T22:27:25;2.20;50.20
16116;DHT22;8162;47.104;15.432;2024-01-27T22:30:26;2.20;49.30